sensor_id;sensor_type;location;lat;lon;timestamp;P1;durP1;ratioP1;P2;durP2;ratioP2
62102;SDS011;48077;48.104;11.702;2023-05-27T00:01:31;13.48;;;8.48;;
62102;SDS011;48077;48.104;11.702;2023-05-27T00:07:41;12.85;;;8.85;;
62102;SDS011;48077;48.104;11.702;2023-05-27T00:10:05;15.45;;;9.20;;
62102;SDS011;48077;48.104;11.702;2023-05-27T00:12:28;12.07;;;8.25;;
62102;SDS011;48077;48.104;11.702;2023-05-27T00:14:52;12.45;;;7.97;;
62102;SDS011;48077;48.104;11.702;2023-05-27T00:17:15;12.77;;;8.40;;
62102;SDS011;48077;48.104;11.702;2023-05-27T00:19:39;13.27;;;8.27;;
62102;SDS011;48077;48.104;11.702;2023-05-27T00:22:03;13.27;;;8.32;;
62102;SDS011;48077;48.104;11.702;2023-05-27T00:24:26;12.23;;;8.82;;
62102;SDS011;48077;48.104;11.702;2023-05-27T00:26:50;12.93;;;7.75;;
62102;SDS011;48077;48.104;11.702;2023-05-27T00:29:13;14.10;;;8.88;;
62102;SDS011;48077;48.104;11.702;2023-05-27T00:31:38;11.73;;;8.63;;
62102;SDS011;48077;48.104;11.702;2023-05-27T00:34:02;16.30;;;8.60;;
62102;SDS011;48077;48.104;11.702;2023-05-27T00:36:25;14.50;;;9.23;;
62102;SDS011;48077;48.104;11.702;2023-05-27T00:38:48;16.27;;;10.05;;
62102;SDS011;48077;48.104;11.702;2023-05-27T00:41:12;12.77;;;8.82;;
62102;SDS011;48077;48.104;11.702;2023-05-27T00:43:35;12.68;;;8.60;;
62102;SDS011;48077;48.104;11.702;2023-05-27T00:45:59;12.73;;;9.15;;
62102;SDS011;48077;48.104;11.702;2023-05-27T00:48:22;14.43;;;9.13;;
62102;SDS011;48077;48.104;11.702;2023-05-27T00:50:46;13.98;;;10.25;;
62102;SDS011;48077;48.104;11.702;2023-05-27T00:53:09;14.60;;;10.07;;
62102;SDS011;48077;48.104;11.702;2023-05-27T00:55:32;11.60;;;8.77;;
62102;SDS011;48077;48.104;11.702;2023-05-27T00:57:56;11.88;;;9.10;;
62102;SDS011;48077;48.104;11.702;2023-05-27T01:00:20;12.55;;;8.82;;
62102;SDS011;48077;48.104;11.702;2023-05-27T01:02:44;16.13;;;9.88;;
62102;SDS011;48077;48.104;11.702;2023-05-27T01:05:09;12.50;;;9.10;;
62102;SDS011;48077;48.104;11.702;2023-05-27T01:10:04;13.75;;;9.13;;
62102;SDS011;48077;48.104;11.702;2023-05-27T01:15:15;19.27;;;12.13;;
62102;SDS011;48077;48.104;11.702;2023-05-27T01:17:42;16.75;;;10.18;;
62102;SDS011;48077;48.104;11.702;2023-05-27T01:20:09;12.25;;;9.73;;
62102;SDS011;48077;48.104;11.702;2023-05-27T01:22:33;12.98;;;9.27;;
62102;SDS011;48077;48.104;11.702;2023-05-27T01:24:56;13.30;;;9.98;;
62102;SDS011;48077;48.104;11.702;2023-05-27T01:27:20;16.55;;;9.88;;
62102;SDS011;48077;48.104;11.702;2023-05-27T01:29:43;16.65;;;9.93;;
62102;SDS011;48077;48.104;11.702;2023-05-27T01:37:36;16.10;;;10.73;;
62102;SDS011;48077;48.104;11.702;2023-05-27T01:40:01;16.70;;;10.60;;
62102;SDS011;48077;48.104;11.702;2023-05-27T01:42:29;17.90;;;11.82;;
62102;SDS011;48077;48.104;11.702;2023-05-27T01:44:52;14.13;;;11.30;;
62102;SDS011;48077;48.104;11.702;2023-05-27T01:47:17;16.55;;;10.82;;
62102;SDS011;48077;48.104;11.702;2023-05-27T01:49:40;16.92;;;12.15;;
62102;SDS011;48077;48.104;11.702;2023-05-27T01:52:03;12.98;;;9.20;;
62102;SDS011;48077;48.104;11.702;2023-05-27T01:54:27;14.93;;;10.50;;
62102;SDS011;48077;48.104;11.702;2023-05-27T01:56:53;15.85;;;10.48;;
62102;SDS011;48077;48.104;11.702;2023-05-27T01:59:17;14.93;;;10.10;;
62102;SDS011;48077;48.104;11.702;2023-05-27T02:01:40;13.00;;;9.38;;
62102;SDS011;48077;48.104;11.702;2023-05-27T02:04:05;16.98;;;11.10;;
62102;SDS011;48077;48.104;11.702;2023-05-27T02:06:28;15.18;;;11.55;;
62102;SDS011;48077;48.104;11.702;2023-05-27T02:08:51;17.23;;;11.02;;
62102;SDS011;48077;48.104;11.702;2023-05-27T02:11:15;15.95;;;11.35;;
62102;SDS011;48077;48.104;11.702;2023-05-27T02:13:38;16.50;;;10.85;;
62102;SDS011;48077;48.104;11.702;2023-05-27T02:16:01;16.20;;;10.25;;
62102;SDS011;48077;48.104;11.702;2023-05-27T02:18:25;12.13;;;10.20;;
62102;SDS011;48077;48.104;11.702;2023-05-27T02:20:48;16.27;;;12.23;;
62102;SDS011;48077;48.104;11.702;2023-05-27T02:23:12;11.55;;;9.77;;
62102;SDS011;48077;48.104;11.702;2023-05-27T02:25:35;12.30;;;10.23;;
62102;SDS011;48077;48.104;11.702;2023-05-27T02:27:58;15.57;;;12.63;;
62102;SDS011;48077;48.104;11.702;2023-05-27T02:30:25;14.27;;;11.25;;
62102;SDS011;48077;48.104;11.702;2023-05-27T02:32:50;15.20;;;10.88;;
62102;SDS011;48077;48.104;11.702;2023-05-27T02:35:14;16.00;;;11.10;;
62102;SDS011;48077;48.104;11.702;2023-05-27T02:37:38;11.77;;;10.45;;
62102;SDS011;48077;48.104;11.702;2023-05-27T02:40:01;15.95;;;11.00;;
62102;SDS011;48077;48.104;11.702;2023-05-27T02:42:25;15.70;;;12.32;;
62102;SDS011;48077;48.104;11.702;2023-05-27T02:44:49;18.55;;;13.38;;
62102;SDS011;48077;48.104;11.702;2023-05-27T02:47:12;14.85;;;11.55;;
62102;SDS011;48077;48.104;11.702;2023-05-27T02:49:35;16.00;;;11.00;;
62102;SDS011;48077;48.104;11.702;2023-05-27T02:51:59;17.52;;;12.43;;
62102;SDS011;48077;48.104;11.702;2023-05-27T02:54:22;17.10;;;12.27;;
62102;SDS011;48077;48.104;11.702;2023-05-27T02:56:45;21.20;;;12.55;;
62102;SDS011;48077;48.104;11.702;2023-05-27T02:59:09;20.15;;;13.40;;
62102;SDS011;48077;48.104;11.702;2023-05-27T03:01:32;18.45;;;12.55;;
62102;SDS011;48077;48.104;11.702;2023-05-27T03:03:56;16.75;;;13.20;;
62102;SDS011;48077;48.104;11.702;2023-05-27T03:06:19;17.55;;;12.90;;
62102;SDS011;48077;48.104;11.702;2023-05-27T03:08:43;18.98;;;12.30;;
62102;SDS011;48077;48.104;11.702;2023-05-27T03:11:06;17.40;;;13.35;;
62102;SDS011;48077;48.104;11.702;2023-05-27T03:13:29;15.88;;;13.82;;
62102;SDS011;48077;48.104;11.702;2023-05-27T03:15:53;19.75;;;13.25;;
62102;SDS011;48077;48.104;11.702;2023-05-27T03:18:17;18.17;;;13.35;;
62102;SDS011;48077;48.104;11.702;2023-05-27T03:20:40;16.83;;;12.93;;
62102;SDS011;48077;48.104;11.702;2023-05-27T03:23:05;17.52;;;13.05;;
62102;SDS011;48077;48.104;11.702;2023-05-27T03:25:29;21.40;;;14.43;;
62102;SDS011;48077;48.104;11.702;2023-05-27T03:27:53;16.42;;;12.75;;
62102;SDS011;48077;48.104;11.702;2023-05-27T03:30:16;18.67;;;12.38;;
62102;SDS011;48077;48.104;11.702;2023-05-27T03:32:39;20.20;;;14.15;;
62102;SDS011;48077;48.104;11.702;2023-05-27T03:35:03;17.80;;;12.20;;
62102;SDS011;48077;48.104;11.702;2023-05-27T03:37:27;20.02;;;13.38;;
62102;SDS011;48077;48.104;11.702;2023-05-27T03:39:50;17.40;;;13.07;;
62102;SDS011;48077;48.104;11.702;2023-05-27T03:42:17;17.58;;;13.10;;
62102;SDS011;48077;48.104;11.702;2023-05-27T03:44:41;16.92;;;12.25;;
62102;SDS011;48077;48.104;11.702;2023-05-27T03:47:04;15.40;;;12.50;;
62102;SDS011;48077;48.104;11.702;2023-05-27T03:49:28;19.98;;;13.68;;
62102;SDS011;48077;48.104;11.702;2023-05-27T03:51:51;18.67;;;13.07;;
62102;SDS011;48077;48.104;11.702;2023-05-27T03:54:15;16.75;;;12.30;;
62102;SDS011;48077;48.104;11.702;2023-05-27T03:56:38;16.90;;;13.07;;
62102;SDS011;48077;48.104;11.702;2023-05-27T03:59:02;20.48;;;13.48;;
62102;SDS011;48077;48.104;11.702;2023-05-27T04:01:25;20.88;;;13.13;;
62102;SDS011;48077;48.104;11.702;2023-05-27T04:03:50;16.15;;;12.88;;
62102;SDS011;48077;48.104;11.702;2023-05-27T04:06:14;15.85;;;13.15;;
62102;SDS011;48077;48.104;11.702;2023-05-27T04:08:38;18.85;;;14.68;;
62102;SDS011;48077;48.104;11.702;2023-05-27T04:11:03;18.02;;;13.60;;
62102;SDS011;48077;48.104;11.702;2023-05-27T04:13:27;18.63;;;13.27;;
62102;SDS011;48077;48.104;11.702;2023-05-27T04:15:50;16.90;;;13.52;;
62102;SDS011;48077;48.104;11.702;2023-05-27T04:18:14;18.58;;;13.25;;
62102;SDS011;48077;48.104;11.702;2023-05-27T04:20:38;16.45;;;12.40;;
62102;SDS011;48077;48.104;11.702;2023-05-27T04:23:03;19.20;;;13.98;;
62102;SDS011;48077;48.104;11.702;2023-05-27T04:25:26;16.48;;;12.98;;
62102;SDS011;48077;48.104;11.702;2023-05-27T04:27:50;22.08;;;14.98;;
62102;SDS011;48077;48.104;11.702;2023-05-27T04:30:13;19.27;;;12.57;;
62102;SDS011;48077;48.104;11.702;2023-05-27T04:32:37;16.25;;;12.45;;
62102;SDS011;48077;48.104;11.702;2023-05-27T04:35:00;17.25;;;14.10;;
62102;SDS011;48077;48.104;11.702;2023-05-27T04:37:23;17.45;;;12.48;;
62102;SDS011;48077;48.104;11.702;2023-05-27T04:39:50;16.92;;;13.02;;
62102;SDS011;48077;48.104;11.702;2023-05-27T04:42:15;21.27;;;13.77;;
62102;SDS011;48077;48.104;11.702;2023-05-27T04:44:39;16.98;;;11.82;;
62102;SDS011;48077;48.104;11.702;2023-05-27T04:47:04;21.23;;;14.82;;
62102;SDS011;48077;48.104;11.702;2023-05-27T04:49:28;18.40;;;13.45;;
62102;SDS011;48077;48.104;11.702;2023-05-27T04:51:51;19.42;;;12.68;;
62102;SDS011;48077;48.104;11.702;2023-05-27T04:54:14;21.90;;;13.68;;
62102;SDS011;48077;48.104;11.702;2023-05-27T04:56:38;17.88;;;13.02;;
62102;SDS011;48077;48.104;11.702;2023-05-27T04:59:01;16.08;;;11.15;;
62102;SDS011;48077;48.104;11.702;2023-05-27T05:01:24;15.52;;;11.40;;
62102;SDS011;48077;48.104;11.702;2023-05-27T05:03:50;16.42;;;10.63;;
62102;SDS011;48077;48.104;11.702;2023-05-27T05:06:15;13.70;;;9.95;;
62102;SDS011;48077;48.104;11.702;2023-05-27T05:08:38;15.45;;;11.52;;
62102;SDS011;48077;48.104;11.702;2023-05-27T05:11:02;13.00;;;9.45;;
62102;SDS011;48077;48.104;11.702;2023-05-27T05:13:25;17.42;;;10.30;;
62102;SDS011;48077;48.104;11.702;2023-05-27T05:15:51;20.45;;;10.63;;
62102;SDS011;48077;48.104;11.702;2023-05-27T05:18:15;14.10;;;9.63;;
62102;SDS011;48077;48.104;11.702;2023-05-27T05:20:38;21.10;;;11.18;;
62102;SDS011;48077;48.104;11.702;2023-05-27T05:23:02;21.08;;;11.75;;
62102;SDS011;48077;48.104;11.702;2023-05-27T05:25:25;14.10;;;8.85;;
62102;SDS011;48077;48.104;11.702;2023-05-27T05:27:49;16.90;;;9.73;;
62102;SDS011;48077;48.104;11.702;2023-05-27T05:30:14;14.88;;;9.27;;
62102;SDS011;48077;48.104;11.702;2023-05-27T05:32:37;14.18;;;8.70;;
62102;SDS011;48077;48.104;11.702;2023-05-27T05:35:01;17.13;;;9.43;;
62102;SDS011;48077;48.104;11.702;2023-05-27T05:37:25;19.60;;;9.77;;
62102;SDS011;48077;48.104;11.702;2023-05-27T05:39:48;12.95;;;8.43;;
62102;SDS011;48077;48.104;11.702;2023-05-27T05:42:11;12.18;;;7.75;;
62102;SDS011;48077;48.104;11.702;2023-05-27T05:44:35;13.93;;;8.65;;
62102;SDS011;48077;48.104;11.702;2023-05-27T05:46:58;19.52;;;9.40;;
62102;SDS011;48077;48.104;11.702;2023-05-27T05:49:21;17.10;;;8.63;;
62102;SDS011;48077;48.104;11.702;2023-05-27T05:51:45;16.63;;;8.80;;
62102;SDS011;48077;48.104;11.702;2023-05-27T05:54:08;16.70;;;7.82;;
62102;SDS011;48077;48.104;11.702;2023-05-27T05:56:32;15.63;;;8.10;;
62102;SDS011;48077;48.104;11.702;2023-05-27T05:58:58;15.55;;;7.35;;
62102;SDS011;48077;48.104;11.702;2023-05-27T06:01:22;13.38;;;6.35;;
62102;SDS011;48077;48.104;11.702;2023-05-27T06:03:45;17.77;;;7.93;;
62102;SDS011;48077;48.104;11.702;2023-05-27T06:06:09;14.73;;;7.38;;
62102;SDS011;48077;48.104;11.702;2023-05-27T06:08:33;13.85;;;6.50;;
62102;SDS011;48077;48.104;11.702;2023-05-27T06:10:57;11.48;;;7.45;;
62102;SDS011;48077;48.104;11.702;2023-05-27T06:13:20;20.48;;;8.18;;
62102;SDS011;48077;48.104;11.702;2023-05-27T06:15:43;16.60;;;8.02;;
62102;SDS011;48077;48.104;11.702;2023-05-27T06:18:07;14.85;;;6.28;;
62102;SDS011;48077;48.104;11.702;2023-05-27T06:20:30;15.88;;;6.70;;
62102;SDS011;48077;48.104;11.702;2023-05-27T06:22:53;16.13;;;7.85;;
62102;SDS011;48077;48.104;11.702;2023-05-27T06:25:17;12.57;;;6.45;;
62102;SDS011;48077;48.104;11.702;2023-05-27T06:27:43;15.88;;;6.10;;
62102;SDS011;48077;48.104;11.702;2023-05-27T06:30:06;9.95;;;5.07;;
62102;SDS011;48077;48.104;11.702;2023-05-27T06:32:30;12.80;;;5.82;;
62102;SDS011;48077;48.104;11.702;2023-05-27T06:34:54;15.75;;;6.75;;
62102;SDS011;48077;48.104;11.702;2023-05-27T06:37:17;14.20;;;5.85;;
62102;SDS011;48077;48.104;11.702;2023-05-27T06:39:40;15.13;;;5.75;;
62102;SDS011;48077;48.104;11.702;2023-05-27T06:42:04;14.60;;;5.85;;
62102;SDS011;48077;48.104;11.702;2023-05-27T06:44:27;10.80;;;4.88;;
62102;SDS011;48077;48.104;11.702;2023-05-27T06:46:51;12.93;;;5.78;;
62102;SDS011;48077;48.104;11.702;2023-05-27T06:49:16;12.70;;;5.28;;
62102;SDS011;48077;48.104;11.702;2023-05-27T06:51:42;7.93;;;4.35;;
62102;SDS011;48077;48.104;11.702;2023-05-27T06:54:06;9.88;;;4.57;;
62102;SDS011;48077;48.104;11.702;2023-05-27T06:56:29;14.93;;;5.32;;
62102;SDS011;48077;48.104;11.702;2023-05-27T06:58:53;12.63;;;4.80;;
62102;SDS011;48077;48.104;11.702;2023-05-27T07:01:16;10.45;;;4.97;;
62102;SDS011;48077;48.104;11.702;2023-05-27T07:03:40;8.65;;;4.80;;
62102;SDS011;48077;48.104;11.702;2023-05-27T07:06:04;10.65;;;5.38;;
62102;SDS011;48077;48.104;11.702;2023-05-27T07:08:28;13.20;;;4.78;;
62102;SDS011;48077;48.104;11.702;2023-05-27T07:10:51;13.10;;;5.72;;
62102;SDS011;48077;48.104;11.702;2023-05-27T07:13:14;14.55;;;5.45;;
62102;SDS011;48077;48.104;11.702;2023-05-27T07:15:38;13.07;;;5.65;;
62102;SDS011;48077;48.104;11.702;2023-05-27T07:18:02;16.63;;;5.93;;
62102;SDS011;48077;48.104;11.702;2023-05-27T07:20:25;11.38;;;5.03;;
62102;SDS011;48077;48.104;11.702;2023-05-27T07:22:51;11.02;;;4.85;;
62102;SDS011;48077;48.104;11.702;2023-05-27T07:25:14;9.95;;;4.25;;
62102;SDS011;48077;48.104;11.702;2023-05-27T07:27:38;9.98;;;5.03;;
62102;SDS011;48077;48.104;11.702;2023-05-27T07:30:01;12.43;;;5.05;;
62102;SDS011;48077;48.104;11.702;2023-05-27T07:32:25;12.35;;;4.72;;
62102;SDS011;48077;48.104;11.702;2023-05-27T07:34:49;13.50;;;5.07;;
62102;SDS011;48077;48.104;11.702;2023-05-27T07:37:13;11.27;;;4.70;;
62102;SDS011;48077;48.104;11.702;2023-05-27T07:39:36;11.25;;;4.72;;
62102;SDS011;48077;48.104;11.702;2023-05-27T07:42:02;10.80;;;4.93;;
62102;SDS011;48077;48.104;11.702;2023-05-27T07:44:28;12.20;;;5.03;;
62102;SDS011;48077;48.104;11.702;2023-05-27T07:46:51;10.63;;;4.30;;
62102;SDS011;48077;48.104;11.702;2023-05-27T07:49:15;15.43;;;5.50;;
62102;SDS011;48077;48.104;11.702;2023-05-27T07:51:38;12.98;;;4.85;;
62102;SDS011;48077;48.104;11.702;2023-05-27T07:54:02;13.85;;;5.13;;
62102;SDS011;48077;48.104;11.702;2023-05-27T07:56:25;12.88;;;4.95;;
62102;SDS011;48077;48.104;11.702;2023-05-27T07:58:49;12.88;;;4.97;;
62102;SDS011;48077;48.104;11.702;2023-05-27T08:01:12;14.70;;;5.32;;
62102;SDS011;48077;48.104;11.702;2023-05-27T08:03:35;12.18;;;4.93;;
62102;SDS011;48077;48.104;11.702;2023-05-27T08:05:59;12.73;;;5.65;;
62102;SDS011;48077;48.104;11.702;2023-05-27T08:08:25;13.32;;;5.60;;
62102;SDS011;48077;48.104;11.702;2023-05-27T08:10:48;13.63;;;5.50;;
62102;SDS011;48077;48.104;11.702;2023-05-27T08:13:12;9.30;;;4.88;;
62102;SDS011;48077;48.104;11.702;2023-05-27T08:15:35;12.20;;;5.35;;
62102;SDS011;48077;48.104;11.702;2023-05-27T08:17:58;16.20;;;6.10;;
62102;SDS011;48077;48.104;11.702;2023-05-27T08:20:22;12.43;;;5.50;;
62102;SDS011;48077;48.104;11.702;2023-05-27T08:22:45;12.43;;;6.25;;
62102;SDS011;48077;48.104;11.702;2023-05-27T08:25:09;15.73;;;5.93;;
62102;SDS011;48077;48.104;11.702;2023-05-27T08:30:25;11.75;;;5.50;;
62102;SDS011;48077;48.104;11.702;2023-05-27T08:32:49;13.13;;;6.00;;
62102;SDS011;48077;48.104;11.702;2023-05-27T08:35:12;14.48;;;6.07;;
62102;SDS011;48077;48.104;11.702;2023-05-27T08:37:36;13.30;;;5.72;;
62102;SDS011;48077;48.104;11.702;2023-05-27T08:40:00;14.75;;;6.30;;
62102;SDS011;48077;48.104;11.702;2023-05-27T08:42:24;15.07;;;6.00;;
62102;SDS011;48077;48.104;11.702;2023-05-27T08:44:48;13.73;;;5.38;;
62102;SDS011;48077;48.104;11.702;2023-05-27T08:47:12;15.07;;;6.47;;
62102;SDS011;48077;48.104;11.702;2023-05-27T08:49:38;10.77;;;5.43;;
62102;SDS011;48077;48.104;11.702;2023-05-27T08:52:04;12.45;;;5.93;;
62102;SDS011;48077;48.104;11.702;2023-05-27T08:54:32;15.05;;;6.25;;
62102;SDS011;48077;48.104;11.702;2023-05-27T08:56:57;15.35;;;6.30;;
62102;SDS011;48077;48.104;11.702;2023-05-27T08:59:23;28.52;;;8.52;;
62102;SDS011;48077;48.104;11.702;2023-05-27T09:01:47;38.00;;;12.00;;
62102;SDS011;48077;48.104;11.702;2023-05-27T09:04:12;20.90;;;7.75;;
62102;SDS011;48077;48.104;11.702;2023-05-27T09:06:36;13.57;;;6.25;;
62102;SDS011;48077;48.104;11.702;2023-05-27T09:09:00;28.23;;;8.77;;
62102;SDS011;48077;48.104;11.702;2023-05-27T09:11:24;31.48;;;9.75;;
62102;SDS011;48077;48.104;11.702;2023-05-27T09:13:50;16.25;;;6.63;;
62102;SDS011;48077;48.104;11.702;2023-05-27T09:16:19;16.85;;;6.85;;
62102;SDS011;48077;48.104;11.702;2023-05-27T09:18:44;15.07;;;7.00;;
62102;SDS011;48077;48.104;11.702;2023-05-27T09:21:08;16.23;;;6.80;;
62102;SDS011;48077;48.104;11.702;2023-05-27T09:23:36;14.38;;;5.95;;
62102;SDS011;48077;48.104;11.702;2023-05-27T09:28:24;14.70;;;7.37;;
62102;SDS011;48077;48.104;11.702;2023-05-27T09:30:58;12.60;;;6.13;;
62102;SDS011;48077;48.104;11.702;2023-05-27T09:33:23;11.20;;;5.70;;
62102;SDS011;48077;48.104;11.702;2023-05-27T09:35:47;16.45;;;6.82;;
62102;SDS011;48077;48.104;11.702;2023-05-27T09:38:11;12.75;;;6.25;;
62102;SDS011;48077;48.104;11.702;2023-05-27T09:40:37;16.05;;;6.85;;
62102;SDS011;48077;48.104;11.702;2023-05-27T09:43:01;14.63;;;6.93;;
62102;SDS011;48077;48.104;11.702;2023-05-27T09:45:24;11.90;;;6.00;;
62102;SDS011;48077;48.104;11.702;2023-05-27T09:47:49;12.30;;;6.25;;
62102;SDS011;48077;48.104;11.702;2023-05-27T09:50:14;14.23;;;6.63;;
62102;SDS011;48077;48.104;11.702;2023-05-27T09:52:38;14.02;;;7.03;;
62102;SDS011;48077;48.104;11.702;2023-05-27T09:55:02;14.45;;;5.88;;
62102;SDS011;48077;48.104;11.702;2023-05-27T09:57:25;19.17;;;6.95;;
62102;SDS011;48077;48.104;11.702;2023-05-27T09:59:49;11.30;;;6.03;;
62102;SDS011;48077;48.104;11.702;2023-05-27T10:02:15;12.80;;;6.68;;
62102;SDS011;48077;48.104;11.702;2023-05-27T10:04:41;11.07;;;6.05;;
62102;SDS011;48077;48.104;11.702;2023-05-27T10:07:06;12.25;;;5.60;;
62102;SDS011;48077;48.104;11.702;2023-05-27T10:09:30;14.90;;;6.28;;
62102;SDS011;48077;48.104;11.702;2023-05-27T10:11:54;13.77;;;6.00;;
62102;SDS011;48077;48.104;11.702;2023-05-27T10:14:18;15.95;;;7.07;;
62102;SDS011;48077;48.104;11.702;2023-05-27T10:16:50;13.80;;;5.57;;
62102;SDS011;48077;48.104;11.702;2023-05-27T10:19:16;12.68;;;6.65;;
62102;SDS011;48077;48.104;11.702;2023-05-27T10:21:43;12.77;;;6.07;;
62102;SDS011;48077;48.104;11.702;2023-05-27T10:24:09;16.80;;;6.25;;
62102;SDS011;48077;48.104;11.702;2023-05-27T10:26:41;12.32;;;6.43;;
62102;SDS011;48077;48.104;11.702;2023-05-27T10:29:11;11.73;;;6.22;;
62102;SDS011;48077;48.104;11.702;2023-05-27T10:31:34;11.15;;;5.82;;
62102;SDS011;48077;48.104;11.702;2023-05-27T10:34:03;14.48;;;6.40;;
62102;SDS011;48077;48.104;11.702;2023-05-27T10:36:27;10.07;;;5.57;;
62102;SDS011;48077;48.104;11.702;2023-05-27T10:38:55;17.20;;;6.27;;
62102;SDS011;48077;48.104;11.702;2023-05-27T10:41:20;12.32;;;6.00;;
62102;SDS011;48077;48.104;11.702;2023-05-27T10:43:44;15.10;;;6.03;;
62102;SDS011;48077;48.104;11.702;2023-05-27T10:46:21;11.80;;;6.07;;
62102;SDS011;48077;48.104;11.702;2023-05-27T10:48:44;12.10;;;6.45;;
62102;SDS011;48077;48.104;11.702;2023-05-27T10:51:08;12.48;;;6.00;;
62102;SDS011;48077;48.104;11.702;2023-05-27T10:53:31;10.90;;;5.78;;
62102;SDS011;48077;48.104;11.702;2023-05-27T10:55:58;11.38;;;6.13;;
62102;SDS011;48077;48.104;11.702;2023-05-27T10:58:22;10.48;;;5.88;;
62102;SDS011;48077;48.104;11.702;2023-05-27T11:00:47;12.65;;;5.97;;
62102;SDS011;48077;48.104;11.702;2023-05-27T11:03:19;14.73;;;6.28;;
62102;SDS011;48077;48.104;11.702;2023-05-27T11:05:46;11.20;;;5.55;;
62102;SDS011;48077;48.104;11.702;2023-05-27T11:08:13;11.68;;;5.82;;
62102;SDS011;48077;48.104;11.702;2023-05-27T11:13:03;14.57;;;5.78;;
62102;SDS011;48077;48.104;11.702;2023-05-27T11:15:27;13.93;;;5.65;;
62102;SDS011;48077;48.104;11.702;2023-05-27T11:17:50;13.60;;;6.28;;
62102;SDS011;48077;48.104;11.702;2023-05-27T11:20:13;13.05;;;5.88;;
62102;SDS011;48077;48.104;11.702;2023-05-27T11:22:39;16.23;;;6.75;;
62102;SDS011;48077;48.104;11.702;2023-05-27T11:25:02;11.35;;;5.45;;
62102;SDS011;48077;48.104;11.702;2023-05-27T11:27:32;16.77;;;7.07;;
62102;SDS011;48077;48.104;11.702;2023-05-27T11:29:58;16.83;;;6.30;;
62102;SDS011;48077;48.104;11.702;2023-05-27T11:32:21;12.75;;;6.03;;
62102;SDS011;48077;48.104;11.702;2023-05-27T11:34:45;13.90;;;6.68;;
62102;SDS011;48077;48.104;11.702;2023-05-27T11:37:10;10.93;;;5.68;;
62102;SDS011;48077;48.104;11.702;2023-05-27T11:39:34;13.20;;;6.43;;
62102;SDS011;48077;48.104;11.702;2023-05-27T11:41:57;11.50;;;5.38;;
62102;SDS011;48077;48.104;11.702;2023-05-27T11:44:21;13.20;;;6.47;;
62102;SDS011;48077;48.104;11.702;2023-05-27T11:46:46;12.20;;;5.60;;
62102;SDS011;48077;48.104;11.702;2023-05-27T11:49:11;12.52;;;6.03;;
62102;SDS011;48077;48.104;11.702;2023-05-27T11:51:36;13.00;;;5.60;;
62102;SDS011;48077;48.104;11.702;2023-05-27T11:54:01;9.35;;;4.97;;
62102;SDS011;48077;48.104;11.702;2023-05-27T11:56:24;14.70;;;5.55;;
62102;SDS011;48077;48.104;11.702;2023-05-27T11:58:48;13.93;;;5.75;;
62102;SDS011;48077;48.104;11.702;2023-05-27T12:01:11;10.38;;;5.30;;
62102;SDS011;48077;48.104;11.702;2023-05-27T12:03:35;13.23;;;5.72;;
62102;SDS011;48077;48.104;11.702;2023-05-27T12:05:58;11.52;;;5.57;;
62102;SDS011;48077;48.104;11.702;2023-05-27T12:08:22;10.80;;;4.68;;
62102;SDS011;48077;48.104;11.702;2023-05-27T12:10:45;12.68;;;5.95;;
62102;SDS011;48077;48.104;11.702;2023-05-27T12:13:13;15.25;;;5.18;;
62102;SDS011;48077;48.104;11.702;2023-05-27T12:15:36;13.88;;;5.22;;
62102;SDS011;48077;48.104;11.702;2023-05-27T12:18:00;10.30;;;5.55;;
62102;SDS011;48077;48.104;11.702;2023-05-27T12:20:23;10.95;;;5.00;;
62102;SDS011;48077;48.104;11.702;2023-05-27T12:22:51;14.70;;;5.68;;
62102;SDS011;48077;48.104;11.702;2023-05-27T12:25:15;12.77;;;5.35;;
62102;SDS011;48077;48.104;11.702;2023-05-27T12:27:38;10.45;;;5.00;;
62102;SDS011;48077;48.104;11.702;2023-05-27T12:30:01;12.02;;;5.72;;
62102;SDS011;48077;48.104;11.702;2023-05-27T12:32:25;11.65;;;4.88;;
62102;SDS011;48077;48.104;11.702;2023-05-27T12:34:48;15.40;;;5.53;;
62102;SDS011;48077;48.104;11.702;2023-05-27T12:37:12;11.43;;;5.22;;
62102;SDS011;48077;48.104;11.702;2023-05-27T12:39:35;11.30;;;4.90;;
62102;SDS011;48077;48.104;11.702;2023-05-27T12:41:58;7.20;;;4.60;;
62102;SDS011;48077;48.104;11.702;2023-05-27T12:44:22;13.07;;;5.43;;
62102;SDS011;48077;48.104;11.702;2023-05-27T12:46:45;11.63;;;4.72;;
62102;SDS011;48077;48.104;11.702;2023-05-27T12:49:08;14.48;;;5.68;;
62102;SDS011;48077;48.104;11.702;2023-05-27T12:51:32;7.50;;;4.72;;
62102;SDS011;48077;48.104;11.702;2023-05-27T12:53:55;9.55;;;5.10;;
62102;SDS011;48077;48.104;11.702;2023-05-27T12:56:19;9.73;;;5.15;;
62102;SDS011;48077;48.104;11.702;2023-05-27T12:58:42;10.70;;;5.30;;
62102;SDS011;48077;48.104;11.702;2023-05-27T13:01:06;12.63;;;6.03;;
62102;SDS011;48077;48.104;11.702;2023-05-27T13:03:30;9.75;;;5.18;;
62102;SDS011;48077;48.104;11.702;2023-05-27T13:05:53;7.65;;;4.93;;
62102;SDS011;48077;48.104;11.702;2023-05-27T13:08:16;10.15;;;4.80;;
62102;SDS011;48077;48.104;11.702;2023-05-27T13:10:40;8.50;;;5.03;;
62102;SDS011;48077;48.104;11.702;2023-05-27T13:13:03;11.20;;;5.43;;
62102;SDS011;48077;48.104;11.702;2023-05-27T13:15:27;10.02;;;5.20;;
62102;SDS011;48077;48.104;11.702;2023-05-27T13:17:51;10.43;;;4.95;;
62102;SDS011;48077;48.104;11.702;2023-05-27T13:20:15;10.45;;;5.03;;
62102;SDS011;48077;48.104;11.702;2023-05-27T13:22:39;11.52;;;6.20;;
62102;SDS011;48077;48.104;11.702;2023-05-27T13:25:03;11.32;;;5.38;;
62102;SDS011;48077;48.104;11.702;2023-05-27T13:27:27;8.43;;;4.72;;
62102;SDS011;48077;48.104;11.702;2023-05-27T13:29:50;8.13;;;4.57;;
62102;SDS011;48077;48.104;11.702;2023-05-27T13:32:14;14.05;;;5.30;;
62102;SDS011;48077;48.104;11.702;2023-05-27T13:34:37;18.65;;;5.30;;
62102;SDS011;48077;48.104;11.702;2023-05-27T13:37:01;9.20;;;4.72;;
62102;SDS011;48077;48.104;11.702;2023-05-27T13:39:25;18.65;;;9.48;;
62102;SDS011;48077;48.104;11.702;2023-05-27T13:41:48;9.40;;;4.65;;
62102;SDS011;48077;48.104;11.702;2023-05-27T13:44:12;8.07;;;4.95;;
62102;SDS011;48077;48.104;11.702;2023-05-27T13:46:35;11.60;;;5.22;;
62102;SDS011;48077;48.104;11.702;2023-05-27T13:48:59;10.40;;;5.38;;
62102;SDS011;48077;48.104;11.702;2023-05-27T13:51:22;8.48;;;4.70;;
62102;SDS011;48077;48.104;11.702;2023-05-27T13:53:45;8.43;;;4.57;;
62102;SDS011;48077;48.104;11.702;2023-05-27T13:56:09;11.45;;;4.82;;
62102;SDS011;48077;48.104;11.702;2023-05-27T13:58:32;9.80;;;4.55;;
62102;SDS011;48077;48.104;11.702;2023-05-27T14:00:55;11.02;;;4.95;;
62102;SDS011;48077;48.104;11.702;2023-05-27T14:03:19;10.18;;;5.60;;
62102;SDS011;48077;48.104;11.702;2023-05-27T14:05:43;12.18;;;5.20;;
62102;SDS011;48077;48.104;11.702;2023-05-27T14:08:06;10.38;;;4.72;;
62102;SDS011;48077;48.104;11.702;2023-05-27T14:10:34;9.88;;;4.80;;
62102;SDS011;48077;48.104;11.702;2023-05-27T14:12:57;13.45;;;6.07;;
62102;SDS011;48077;48.104;11.702;2023-05-27T14:15:20;8.20;;;5.18;;
62102;SDS011;48077;48.104;11.702;2023-05-27T14:17:44;9.20;;;4.65;;
62102;SDS011;48077;48.104;11.702;2023-05-27T14:20:08;15.63;;;6.68;;
62102;SDS011;48077;48.104;11.702;2023-05-27T14:22:33;11.00;;;5.22;;